Time;durP1;ratioP1;P1;durP2;ratioP2;P2;SDS_P1;SDS_P2;PMS_P1;PMS_P2;Temp;Humidity;BMP_temperature;BMP_pressure;BME280_temperature;BME280_humidity;BME280_pressure;Samples;Min_cycle;Max_cycle;Signal;HPM_P1;HPM_P2
2021/09/27 00:01:01;;;;;;;2.20;1.15;;;16.30;99.90;;;;;;6239248;23;20023;-86
2021/09/27 00:03:28;;;;;;;1.63;0.70;;;16.30;99.90;;;;;;6264169;23;20015;-85
2021/09/27 00:05:56;;;;;;;2.38;1.20;;;16.20;99.90;;;;;;6264241;23;20012;-85
2021/09/27 00:08:24;;;;;;;1.95;0.75;;;16.20;99.90;;;;;;6289551;23;20329;-86
2021/09/27 00:11:01;;;;;;;1.48;1.08;;;16.20;99.90;;;;;;6263980;23;20012;-86
2021/09/27 00:13:31;;;;;;;3.10;1.52;;;16.10;99.90;;;;;;6264127;23;20012;-86
2021/09/27 00:15:58;;;;;;;0.68;0.40;;;16.20;99.90;;;;;;6264201;23;20012;-86
2021/09/27 00:18:25;;;;;;;2.17;1.05;;;16.10;99.90;;;;;;6239199;23;20099;-86
2021/09/27 00:20:56;;;;;;;1.75;0.80;;;16.10;99.90;;;;;;6238787;23;20020;-85
2021/09/27 00:23:24;;;;;;;1.23;0.70;;;16.00;99.90;;;;;;6263341;23;20008;-86
2021/09/27 00:25:51;;;;;;;1.77;0.70;;;16.00;99.90;;;;;;6263825;23;20487;-85
2021/09/27 00:28:18;;;;;;;1.00;0.65;;;16.00;99.90;;;;;;6238674;23;20016;-85
2021/09/27 00:30:47;;;;;;;2.22;1.08;;;15.90;99.90;;;;;;6238963;23;20441;-85
2021/09/27 00:33:17;;;;;;;1.40;0.77;;;15.90;99.90;;;;;;6263377;23;20069;-85
2021/09/27 00:35:44;;;;;;;1.75;0.85;;;15.90;99.90;;;;;;6264029;23;20020;-85
2021/09/27 00:38:11;;;;;;;0.88;0.55;;;15.80;99.90;;;;;;6238425;23;20012;-86
2021/09/27 00:40:54;;;;;;;2.22;1.02;;;15.80;99.90;;;;;;6263773;23;20008;-85
2021/09/27 00:43:21;;;;;;;1.38;0.75;;;15.80;99.90;;;;;;6263304;23;20429;-86
2021/09/27 00:45:55;;;;;;;2.03;1.10;;;15.80;99.90;;;;;;6263942;23;20020;-86
2021/09/27 00:48:22;;;;;;;1.40;0.87;;;15.80;99.90;;;;;;6288665;23;20012;-85
2021/09/27 00:50:53;;;;;;;3.78;0.93;;;15.80;99.90;;;;;;6238644;23;20012;-86
2021/09/27 00:53:22;;;;;;;0.95;0.65;;;15.80;99.90;;;;;;6263523;23;20027;-86
2021/09/27 00:55:49;;;;;;;0.63;0.50;;;15.80;99.90;;;;;;6263868;23;20042;-86
2021/09/27 00:58:19;;;;;;;1.35;0.75;;;15.80;99.90;;;;;;6238607;23;20012;-86
2021/09/27 01:00:47;;;;;;;1.20;0.73;;;15.80;99.90;;;;;;6288825;23;20377;-86
2021/09/27 01:03:15;;;;;;;1.88;0.85;;;15.80;99.90;;;;;;6288169;23;20012;-86
2021/09/27 01:05:49;;;;;;;1.02;0.60;;;15.80;99.90;;;;;;6263372;23;20099;-86
2021/09/27 01:08:28;;;;;;;1.03;0.47;;;15.80;99.90;;;;;;6288517;23;20013;-86
2021/09/27 01:11:13;;;;;;;1.20;0.50;;;15.70;99.90;;;;;;6263610;23;20241;-85
2021/09/27 01:14:01;;;;;;;1.33;0.57;;;15.60;99.90;;;;;;6288621;23;20098;-85
2021/09/27 01:17:07;;;;;;;1.20;0.65;;;15.60;99.90;;;;;;6263088;23;20023;-85
2021/09/27 01:20:02;;;;;;;0.82;0.52;;;15.60;99.90;;;;;;6263561;23;20070;-86
2021/09/27 01:22:54;;;;;;;0.95;0.55;;;15.50;99.90;;;;;;6262959;23;20052;-86
2021/09/27 01:25:48;;;;;;;0.32;0.22;;;15.50;99.90;;;;;;6263393;23;20012;-86
2021/09/27 01:28:34;;;;;;;1.75;0.82;;;15.50;99.90;;;;;;6288634;23;20094;-85
2021/09/27 01:31:39;;;;;;;1.13;0.60;;;15.50;99.90;;;;;;6263431;23;20379;-85
2021/09/27 01:34:11;;;;;;;0.70;0.25;;;15.50;99.90;;;;;;6263256;23;20118;-86
2021/09/27 01:37:13;;;;;;;0.77;0.40;;;15.50;99.90;;;;;;6263318;23;20385;-85
2021/09/27 01:40:01;;;;;;;0.30;0.28;;;15.50;99.90;;;;;;6251136;23;20016;-86
2021/09/27 01:42:37;;;;;;;0.70;0.30;;;15.40;99.90;;;;;;6262977;23;20008;-86
2021/09/27 01:45:15;;;;;;;0.75;0.43;;;15.40;99.90;;;;;;6262773;23;20048;-85
2021/09/27 01:47:59;;;;;;;0.30;0.20;;;15.40;99.90;;;;;;6263033;23;20031;-85
2021/09/27 01:50:35;;;;;;;1.05;0.45;;;15.40;99.90;;;;;;6262570;23;20333;-85
2021/09/27 01:53:24;;;;;;;1.65;0.60;;;15.40;99.90;;;;;;6263049;23;20019;-85
2021/09/27 01:56:06;;;;;;;1.02;0.35;;;15.40;99.90;;;;;;6263095;23;20012;-86
2021/09/27 01:58:44;;;;;;;1.17;0.70;;;15.30;99.90;;;;;;6262604;23;20020;-86
2021/09/27 02:01:25;;;;;;;0.65;0.40;;;15.30;99.90;;;;;;6262999;23;20074;-85
2021/09/27 02:04:01;;;;;;;0.73;0.32;;;15.30;99.90;;;;;;6263023;23;20016;-85
2021/09/27 02:06:39;;;;;;;0.55;0.30;;;15.30;99.90;;;;;;6287959;23;20016;-86
2021/09/27 02:09:30;;;;;;;0.93;0.68;;;15.30;99.90;;;;;;6262740;23;20004;-85
2021/09/27 02:12:03;;;;;;;0.43;0.25;;;15.20;99.90;;;;;;6288088;22;20047;-86
2021/09/27 02:14:35;;;;;;;1.30;0.57;;;15.20;99.90;;;;;;6262461;23;20016;-86
2021/09/27 02:17:27;;;;;;;1.30;0.60;;;15.20;99.90;;;;;;6262712;23;20314;-85
2021/09/27 02:19:59;;;;;;;0.57;0.32;;;15.20;99.90;;;;;;6262881;23;20051;-85
2021/09/27 02:22:34;;;;;;;0.57;0.38;;;15.30;99.90;;;;;;6262364;23;20012;-86
2021/09/27 02:25:10;;;;;;;0.43;0.30;;;15.30;99.90;;;;;;6262772;23;20019;-85
2021/09/27 02:27:37;;;;;;;0.40;0.28;;;15.30;99.90;;;;;;6262264;23;20100;-85
2021/09/27 02:30:07;;;;;;;0.32;0.22;;;15.30;99.90;;;;;;6237805;23;20423;-85
2021/09/27 02:32:56;;;;;;;1.35;0.47;;;15.40;99.90;;;;;;6262301;23;20008;-86
2021/09/27 02:35:32;;;;;;;0.68;0.35;;;15.40;99.90;;;;;;6287017;23;20016;-86
2021/09/27 02:38:05;;;;;;;;;;;15.40;99.90;;;;;;6262965;23;20035;-85
2021/09/27 02:40:47;;;;;;;0.52;0.17;;;15.40;99.90;;;;;;6262388;23;19943;-86
2021/09/27 02:43:14;;;;;;;0.17;0.17;;;15.50;99.90;;;;;;6262554;23;20012;-85
2021/09/27 02:45:44;;;;;;;0.90;0.40;;;15.50;99.90;;;;;;6237167;23;20012;-85
2021/09/27 02:48:29;;;;;;;0.05;0.05;;;15.40;99.90;;;;;;6262499;23;20387;-85
2021/09/27 02:50:56;;;;;;;0.85;0.43;;;15.40;99.90;;;;;;6263405;23;20051;-86
2021/09/27 02:53:22;;;;;;;0.68;0.40;;;15.50;99.90;;;;;;6237254;23;20030;-86
2021/09/27 02:56:12;;;;;;;0.77;0.35;;;15.40;99.90;;;;;;6262637;23;20036;-86
2021/09/27 02:59:05;;;;;;;0.93;0.40;;;15.40;99.90;;;;;;6262163;23;20023;-86
2021/09/27 03:02:01;;;;;;;0.32;0.28;;;15.40;99.90;;;;;;6287355;23;20077;-85
2021/09/27 03:05:03;;;;;;;0.47;0.17;;;15.30;99.90;;;;;;6253437;23;20069;-86
2021/09/27 03:07:46;;;;;;;0.25;0.20;;;15.40;99.90;;;;;;6257381;23;20499;-85
2021/09/27 03:10:29;;;;;;;0.45;0.40;;;15.30;99.90;;;;;;6262206;22;20016;-85
2021/09/27 03:13:15;;;;;;;0.70;0.38;;;15.30;99.90;;;;;;6262274;23;20008;-85
2021/09/27 03:15:51;;;;;;;0.13;0.13;;;15.20;99.90;;;;;;6261972;23;20403;-85
2021/09/27 03:18:37;;;;;;;0.22;0.20;;;15.20;99.90;;;;;;6262385;23;20070;-85
2021/09/27 03:21:07;;;;;;;0.85;0.30;;;15.20;99.90;;;;;;6262375;23;20012;-85
2021/09/27 03:23:55;;;;;;;0.10;0.10;;;15.10;99.90;;;;;;6261858;23;20368;-86
2021/09/27 03:26:44;;;;;;;1.17;0.60;;;15.10;99.90;;;;;;6261768;23;20020;-86
2021/09/27 03:29:31;;;;;;;0.57;0.30;;;15.10;99.90;;;;;;6262340;23;20008;-85
2021/09/27 03:32:19;;;;;;;0.50;0.38;;;15.00;99.90;;;;;;6262377;23;20030;-85
2021/09/27 03:34:55;;;;;;;0.30;0.30;;;15.00;99.90;;;;;;6261934;23;20024;-85
2021/09/27 03:37:48;;;;;;;0.68;0.40;;;15.00;99.90;;;;;;6287521;23;20445;-85
2021/09/27 03:40:22;;;;;;;0.17;0.17;;;15.00;99.90;;;;;;6262126;23;20051;-86
2021/09/27 03:43:15;;;;;;;0.70;0.30;;;14.90;99.90;;;;;;6262706;23;20016;-85
2021/09/27 03:45:54;;;;;;;0.25;0.20;;;14.90;99.90;;;;;;6261897;23;20016;-85
2021/09/27 03:48:33;;;;;;;0.35;0.20;;;14.90;99.90;;;;;;6262231;23;20008;-86
2021/09/27 03:51:05;;;;;;;0.32;0.30;;;14.90;99.90;;;;;;6262044;23;20016;-85
2021/09/27 03:53:48;;;;;;;0.32;0.15;;;14.90;99.90;;;;;;6261762;23;20562;-86
2021/09/27 03:56:34;;;;;;;0.32;0.22;;;14.90;99.90;;;;;;6262052;23;20016;-85
2021/09/27 03:59:04;;;;;;;0.25;0.20;;;14.90;99.90;;;;;;6262046;23;20012;-85
2021/09/27 04:01:39;;;;;;;0.50;0.32;;;14.90;99.90;;;;;;6286860;23;20023;-86
2021/09/27 04:04:49;;;;;;;0.20;0.20;;;14.90;99.90;;;;;;6262765;23;20305;-85
2021/09/27 04:07:53;;;;;;;1.15;0.45;;;14.90;99.90;;;;;;6261995;23;20012;-85
2021/09/27 04:10:38;;;;;;;0.25;0.17;;;14.90;99.90;;;;;;6287144;22;20008;-85
2021/09/27 04:13:31;;;;;;;0.82;0.35;;;14.90;99.90;;;;;;6262072;23;20009;-85
2021/09/27 04:16:04;;;;;;;0.10;0.10;;;14.90;99.90;;;;;;6262033;23;20012;-85
2021/09/27 04:18:49;;;;;;;0.43;0.32;;;14.90;99.90;;;;;;6261787;23;20014;-86
2021/09/27 04:21:30;;;;;;;0.32;0.28;;;14.90;99.90;;;;;;6261947;23;20093;-85
2021/09/27 04:24:25;;;;;;;1.17;0.30;;;14.90;99.90;;;;;;6262023;23;20012;-85
2021/09/27 04:27:21;;;;;;;0.38;0.25;;;14.90;99.90;;;;;;6261633;23;20020;-85
2021/09/27 04:30:04;;;;;;;0.65;0.32;;;14.90;99.90;;;;;;6261472;23;20298;-85
2021/09/27 04:33:03;;;;;;;0.93;0.20;;;14.80;99.90;;;;;;6286904;23;20091;-86
2021/09/27 04:35:41;;;;;;;0.00;0.00;;;14.80;99.90;;;;;;6261662;23;20012;-86
2021/09/27 04:38:09;;;;;;;0.10;0.10;;;14.80;99.90;;;;;;6263943;23;20433;-85
2021/09/27 04:41:00;;;;;;;0.47;0.32;;;14.90;99.90;;;;;;6238039;23;20035;-85
2021/09/27 04:43:50;;;;;;;0.00;0.00;;;14.80;99.90;;;;;;6263670;23;20012;-85
2021/09/27 04:46:49;;;;;;;0.00;0.00;;;14.80;99.90;;;;;;6263623;23;20087;-85
2021/09/27 04:49:22;;;;;;;0.73;0.38;;;14.80;99.90;;;;;;6288821;23;20009;-85
2021/09/27 04:51:55;;;;;;;0.38;0.30;;;14.80;99.90;;;;;;6263177;23;20061;-85
2021/09/27 04:54:24;;;;;;;0.38;0.28;;;14.80;99.90;;;;;;6263646;23;20024;-86
2021/09/27 04:56:54;;;;;;;0.30;0.22;;;14.80;99.90;;;;;;6262959;23;20094;-86
2021/09/27 04:59:29;;;;;;;0.80;0.40;;;14.70;99.90;;;;;;6263792;23;20016;-85
2021/09/27 05:02:13;;;;;;;0.10;0.10;;;14.70;99.90;;;;;;6263165;23;20023;-85
2021/09/27 05:04:48;;;;;;;0.10;0.10;;;14.70;99.90;;;;;;6263051;23;20008;-86
2021/09/27 05:07:57;;;;;;;0.00;0.00;;;14.60;99.90;;;;;;6263601;23;20039;-85
2021/09/27 05:10:48;;;;;;;0.17;0.13;;;14.60;99.90;;;;;;6288828;22;20015;-85
2021/09/27 05:13:37;;;;;;;0.13;0.13;;;14.60;99.90;;;;;;6263551;23;20016;-86
2021/09/27 05:16:26;;;;;;;0.50;0.25;;;14.60;99.90;;;;;;6263427;23;20012;-86
2021/09/27 05:19:21;;;;;;;0.00;0.00;;;14.60;99.90;;;;;;6263146;23;20100;-86
2021/09/27 05:22:06;;;;;;;0.20;0.10;;;14.60;99.90;;;;;;6263159;23;20016;-86
2021/09/27 05:25:09;;;;;;;0.05;0.03;;;14.60;99.90;;;;;;6263377;23;20020;-86
2021/09/27 05:28:05;;;;;;;0.05;0.00;;;14.60;99.90;;;;;;6263195;23;20019;-87
2021/09/27 05:31:03;;;;;;;0.00;0.00;;;14.60;99.90;;;;;;6244125;23;20024;-86
2021/09/27 05:33:39;;;;;;;1.25;0.40;;;14.60;99.90;;;;;;6288133;23;20047;-86
2021/09/27 05:36:43;;;;;;;0.05;0.05;;;14.60;99.90;;;;;;6262668;23;20094;-85
2021/09/27 05:39:32;;;;;;;0.25;0.17;;;14.60;99.90;;;;;;6263255;23;20046;-85
2021/09/27 05:42:29;;;;;;;0.65;0.10;;;14.60;99.90;;;;;;6263170;23;20495;-86
2021/09/27 05:45:20;;;;;;;0.43;0.20;;;14.60;99.90;;;;;;6262868;23;20056;-86
2021/09/27 05:48:16;;;;;;;0.10;0.10;;;14.60;99.90;;;;;;6287817;23;20020;-86
2021/09/27 05:51:04;;;;;;;0.28;0.20;;;14.60;99.90;;;;;;6224602;23;20018;-86
2021/09/27 06:05:07;;;;;;;0.08;0.08;;;14.60;99.90;;;;;;6290385;22;20048;-89
2021/09/27 06:08:01;;;;;;;0.20;0.15;;;14.60;99.90;;;;;;6239720;23;20107;-91
2021/09/27 06:11:00;;;;;;;0.15;0.10;;;14.60;99.90;;;;;;6238943;23;20012;-88
2021/09/27 06:13:31;;;;;;;0.25;0.22;;;14.70;99.90;;;;;;6239337;23;20043;-90
2021/09/27 06:16:20;;;;;;;0.00;0.00;;;14.70;99.90;;;;;;6239098;23;20040;-91
2021/09/27 06:19:08;;;;;;;0.20;0.13;;;14.60;99.90;;;;;;6219879;23;20095;-93
2021/09/27 06:22:13;;;;;;;0.10;0.10;;;14.70;99.90;;;;;;6240825;23;20012;-94
2021/09/27 06:25:17;;;;;;;0.20;0.20;;;14.70;99.90;;;;;;6238988;23;20051;-92
2021/09/27 06:27:56;;;;;;;0.03;0.03;;;14.80;99.90;;;;;;6242039;23;20019;-90
2021/09/27 06:30:42;;;;;;;0.80;0.20;;;14.80;99.90;;;;;;6239421;23;20372;-95
2021/09/27 06:33:28;;;;;;;0.08;0.08;;;14.80;99.90;;;;;;6238144;23;20103;-91
2021/09/27 06:35:57;;;;;;;0.73;0.22;;;14.80;99.90;;;;;;6239297;23;20012;-93
2021/09/27 06:38:34;;;;;;;0.20;0.10;;;14.80;99.90;;;;;;6240456;23;20019;-92
2021/09/27 06:41:04;;;;;;;0.70;0.50;;;14.80;99.90;;;;;;6238595;23;20500;-92
2021/09/27 06:43:31;;;;;;;0.50;0.30;;;14.90;99.90;;;;;;6238971;23;20091;-89
2021/09/27 06:45:58;;;;;;;0.10;0.10;;;14.90;99.90;;;;;;6238337;23;20117;-88
2021/09/27 06:48:25;;;;;;;0.13;0.10;;;14.90;99.90;;;;;;6214641;23;20097;-89
2021/09/27 06:50:54;;;;;;;0.20;0.20;;;14.90;99.90;;;;;;6213704;23;20439;-90
2021/09/27 06:53:25;;;;;;;0.13;0.10;;;15.00;99.90;;;;;;6213349;23;20506;-93
2021/09/27 06:56:02;;;;;;;0.10;0.10;;;15.00;99.90;;;;;;6210720;23;20016;-94
2021/09/27 06:58:30;;;;;;;3.45;0.30;;;15.00;99.90;;;;;;6209185;23;20017;-93
2021/09/27 07:01:01;;;;;;;0.35;0.20;;;15.10;99.90;;;;;;6210304;23;20016;-96
2021/09/27 07:03:28;;;;;;;0.85;0.20;;;15.10;99.90;;;;;;6210550;23;20013;-90
2021/09/27 07:05:56;;;;;;;0.35;0.20;;;15.20;99.90;;;;;;6233424;23;20128;-88
2021/09/27 07:08:23;;;;;;;0.40;0.20;;;15.20;99.90;;;;;;6207929;23;20446;-85
2021/09/27 07:10:53;;;;;;;0.35;0.10;;;15.30;99.90;;;;;;6208341;23;20013;-91
2021/09/27 07:13:20;;;;;;;0.45;0.40;;;15.40;99.90;;;;;;6232640;23;20017;-92
2021/09/27 07:15:53;;;;;;;0.20;0.20;;;15.40;99.90;;;;;;6232846;23;20384;-92
2021/09/27 07:18:19;;;;;;;0.15;0.15;;;15.50;99.90;;;;;;6232297;23;20012;-91
2021/09/27 07:20:46;;;;;;;0.93;0.47;;;15.50;99.90;;;;;;6208079;23;20070;-91
2021/09/27 07:23:13;;;;;;;0.10;0.05;;;15.60;99.90;;;;;;6232311;23;20448;-92
2021/09/27 07:25:40;;;;;;;0.50;0.40;;;15.60;99.90;;;;;;6232906;23;20009;-89
2021/09/27 07:28:07;;;;;;;0.35;0.28;;;15.60;99.90;;;;;;6257539;23;20012;-88
2021/09/27 07:30:36;;;;;;;0.38;0.30;;;15.70;99.90;;;;;;6232897;23;20433;-89
2021/09/27 07:33:03;;;;;;;0.22;0.10;;;15.80;99.90;;;;;;6232260;23;20437;-88
2021/09/27 07:35:31;;;;;;;0.28;0.20;;;15.80;99.90;;;;;;6232672;23;20009;-88
2021/09/27 07:37:58;;;;;;;0.30;0.22;;;15.90;99.90;;;;;;6208393;23;20067;-87
2021/09/27 07:40:28;;;;;;;0.73;0.45;;;15.90;99.90;;;;;;6232171;23;20381;-88
2021/09/27 07:42:55;;;;;;;0.47;0.30;;;16.00;99.90;;;;;;6232789;23;20019;-88
2021/09/27 07:45:24;;;;;;;0.65;0.45;;;16.00;99.90;;;;;;6232545;23;20012;-86
2021/09/27 07:47:58;;;;;;;0.98;0.60;;;16.00;99.90;;;;;;6233024;23;20085;-90
2021/09/27 07:50:25;;;;;;;0.10;0.10;;;16.10;99.90;;;;;;6232359;23;20012;-90
2021/09/27 07:52:52;;;;;;;2.25;0.85;;;16.10;99.90;;;;;;6232760;23;20030;-89
2021/09/27 07:55:19;;;;;;;0.57;0.40;;;16.10;99.90;;;;;;6232364;23;20055;-89
2021/09/27 07:57:46;;;;;;;0.85;0.55;;;16.10;99.90;;;;;;6207837;23;20016;-89
2021/09/27 08:00:15;;;;;;;0.35;0.35;;;16.20;99.90;;;;;;6232434;23;20024;-88
2021/09/27 08:02:43;;;;;;;0.60;0.35;;;16.20;99.90;;;;;;6207660;23;20016;-87
2021/09/27 08:05:24;;;;;;;0.65;0.40;;;16.20;99.90;;;;;;6207401;23;20013;-84
2021/09/27 08:07:50;;;;;;;1.40;0.35;;;16.20;99.90;;;;;;6208144;23;20063;-87
2021/09/27 08:10:20;;;;;;;0.50;0.30;;;16.30;99.90;;;;;;6232106;23;20012;-87
2021/09/27 08:12:48;;;;;;;1.27;0.73;;;16.30;99.90;;;;;;6233124;23;20015;-88
2021/09/27 08:15:31;;;;;;;0.70;0.50;;;16.40;99.90;;;;;;6233903;23;20344;-88
2021/09/27 08:17:58;;;;;;;0.40;0.40;;;16.50;99.90;;;;;;6234176;23;20103;-86
2021/09/27 08:20:32;;;;;;;0.57;0.32;;;16.60;99.90;;;;;;6233982;23;20088;-88
2021/09/27 08:22:59;;;;;;;1.90;0.73;;;16.60;99.90;;;;;;6234496;23;20452;-88
2021/09/27 08:25:28;;;;;;;0.35;0.30;;;16.70;99.90;;;;;;6233958;23;20017;-86
2021/09/27 08:27:55;;;;;;;0.47;0.35;;;16.80;99.90;;;;;;6233757;23;20048;-86
2021/09/27 08:30:26;;;;;;;2.35;0.95;;;16.80;99.90;;;;;;6232643;23;20020;-88
2021/09/27 08:32:53;;;;;;;1.50;0.80;;;16.90;99.90;;;;;;6234108;23;20013;-89
2021/09/27 08:35:20;;;;;;;0.47;0.35;;;16.90;99.90;;;;;;6234315;23;20019;-87
2021/09/27 08:37:47;;;;;;;1.35;0.77;;;17.00;99.90;;;;;;6234277;23;20150;-90
2021/09/27 08:40:45;;;;;;;0.95;0.43;;;17.00;99.90;;;;;;6208405;23;20048;-91
2021/09/27 08:43:35;;;;;;;1.27;0.60;;;17.00;99.90;;;;;;6235299;23;20017;-88
2021/09/27 08:46:26;;;;;;;1.08;0.65;;;17.00;99.90;;;;;;6235961;23;20012;-87
2021/09/27 08:49:39;;;;;;;0.88;0.55;;;17.00;99.90;;;;;;6216051;23;20051;-94
2021/09/27 08:52:09;;;;;;;0.77;0.50;;;17.10;99.90;;;;;;6260562;23;20506;-87
2021/09/27 08:54:36;;;;;;;1.85;0.85;;;17.20;99.90;;;;;;6234358;23;20034;-88
2021/09/27 08:57:41;;;;;;;1.40;0.70;;;17.30;99.90;;;;;;6235430;23;20017;-89
2021/09/27 09:00:48;;;;;;;2.92;0.73;;;17.30;99.90;;;;;;6235398;23;20019;-89
2021/09/27 09:03:24;;;;;;;1.73;0.88;;;17.50;99.90;;;;;;6173130;23;20016;-89
2021/09/27 09:05:57;;;;;;;0.68;0.47;;;17.70;99.90;;;;;;6210612;23;20031;-89
2021/09/27 09:08:47;;;;;;;2.28;1.10;;;17.70;99.90;;;;;;6210019;23;20013;-88
2021/09/27 09:11:32;;;;;;;1.58;0.75;;;17.70;99.90;;;;;;6210397;23;20104;-87
2021/09/27 09:14:18;;;;;;;0.93;0.60;;;17.70;99.90;;;;;;6210687;23;20024;-92
2021/09/27 09:16:48;;;;;;;1.02;0.65;;;17.80;99.90;;;;;;6211101;23;20020;-90
2021/09/27 09:19:19;;;;;;;1.10;0.52;;;17.90;99.90;;;;;;6209741;23;20019;-88
2021/09/27 09:21:49;;;;;;;0.88;0.70;;;18.00;99.90;;;;;;6210761;23;20019;-88
2021/09/27 09:24:23;;;;;;;2.05;1.00;;;18.10;99.90;;;;;;6209377;23;20051;-91
2021/09/27 09:27:12;;;;;;;2.53;0.93;;;18.30;99.90;;;;;;6211032;23;20544;-92
2021/09/27 09:29:41;;;;;;;2.20;0.98;;;18.50;99.90;;;;;;6209677;23;20036;-89
2021/09/27 09:32:22;;;;;;;2.20;1.00;;;18.60;99.90;;;;;;6213301;23;20012;-95
2021/09/27 09:34:55;;;;;;;1.17;0.68;;;18.70;99.90;;;;;;6212261;23;20097;-93
2021/09/27 09:37:36;;;;;;;2.72;1.27;;;18.90;99.90;;;;;;6210791;23;20020;-94
2021/09/27 09:40:27;;;;;;;2.58;1.10;;;19.00;99.90;;;;;;6211391;23;20019;-94
2021/09/27 09:43:35;;;;;;;2.05;1.02;;;18.90;99.90;;;;;;6209464;23;20083;-91
2021/09/27 09:46:09;;;;;;;2.00;0.95;;;18.80;99.90;;;;;;6209215;23;20021;-95
2021/09/27 09:48:57;;;;;;;1.75;1.00;;;18.70;99.90;;;;;;6210344;23;20310;-92
2021/09/27 09:54:48;;;;;;;1.67;0.98;;;18.90;99.90;;;;;;6234522;23;20016;-91
2021/09/27 10:00:51;;;;;;;2.72;1.27;;;19.20;99.90;;;;;;6235825;23;20344;-95
2021/09/27 10:03:27;;;;;;;3.30;1.20;;;19.30;99.90;;;;;;6207673;23;20102;-91
2021/09/27 10:06:09;;;;;;;3.75;1.00;;;19.30;99.90;;;;;;6210683;23;20020;-94
2021/09/27 10:08:46;;;;;;;2.38;1.23;;;19.40;99.90;;;;;;6209697;23;20012;-94
2021/09/27 10:11:23;;;;;;;1.08;0.63;;;19.20;99.90;;;;;;6209511;23;20013;-92
2021/09/27 10:13:55;;;;;;;2.05;1.02;;;19.40;99.90;;;;;;6209147;23;20017;-93
2021/09/27 10:16:46;;;;;;;1.45;0.82;;;19.40;99.90;;;;;;6209230;23;20012;-95
2021/09/27 10:19:32;;;;;;;2.83;1.38;;;19.40;99.90;;;;;;6209331;23;20100;-95
2021/09/27 10:22:06;;;;;;;1.65;0.98;;;19.40;99.90;;;;;;6209401;23;20059;-92
2021/09/27 10:24:44;;;;;;;2.03;1.00;;;19.50;99.90;;;;;;6208944;23;20019;-92
2021/09/27 10:27:26;;;;;;;1.77;0.95;;;19.60;99.90;;;;;;6209504;23;20437;-93
2021/09/27 10:29:54;;;;;;;1.45;0.90;;;19.60;99.90;;;;;;6208288;23;20032;-93
2021/09/27 10:32:33;;;;;;;3.03;1.30;;;19.60;99.90;;;;;;6207755;23;20310;-89
2021/09/27 10:35:07;;;;;;;2.75;1.13;;;19.70;99.90;;;;;;6208474;23;20155;-93
2021/09/27 10:37:34;;;;;;;1.40;0.90;;;19.80;99.90;;;;;;6208986;23;20020;-90
2021/09/27 10:40:17;;;;;;;1.98;0.60;;;19.90;99.90;;;;;;6208881;23;20306;-90
2021/09/27 10:42:48;;;;;;;2.30;1.23;;;19.90;99.90;;;;;;6187762;23;20020;-90
2021/09/27 10:45:19;;;;;;;1.50;1.00;;;20.00;99.90;;;;;;6209122;23;20017;-93
2021/09/27 10:47:51;;;;;;;3.38;0.95;;;20.10;99.90;;;;;;6208770;23;20013;-89
2021/09/27 10:50:26;;;;;;;2.13;1.10;;;20.30;99.90;;;;;;6208661;23;20013;-92
2021/09/27 10:52:52;;;;;;;;;;;20.40;99.90;;;;;;6209184;23;20016;-92
2021/09/27 10:55:46;;;;;;;2.13;1.13;;;20.50;99.90;;;;;;6233637;23;19912;-91
2021/09/27 10:58:50;;;;;;;2.70;0.77;;;20.50;99.90;;;;;;6208898;23;20062;-91
2021/09/27 11:01:44;;;;;;;2.95;1.30;;;20.40;99.90;;;;;;6208607;23;20096;-89
2021/09/27 11:04:29;;;;;;;2.17;0.93;;;20.40;99.90;;;;;;6219645;23;20021;-89
2021/09/27 11:07:14;;;;;;;1.95;1.20;;;20.50;99.90;;;;;;6235252;23;20016;-90
2021/09/27 11:09:43;;;;;;;2.83;1.25;;;20.50;99.90;;;;;;6233420;23;20091;-91
2021/09/27 11:12:18;;;;;;;1.92;1.00;;;20.50;99.90;;;;;;6233782;23;20151;-90
2021/09/27 11:14:58;;;;;;;1.55;1.00;;;20.50;99.90;;;;;;6232846;23;20100;-92
2021/09/27 11:17:39;;;;;;;1.85;1.10;;;20.50;99.90;;;;;;6233506;23;20024;-90
2021/09/27 11:20:13;;;;;;;1.90;1.05;;;20.50;99.90;;;;;;6233841;23;20487;-93
2021/09/27 11:22:55;;;;;;;2.85;0.82;;;20.40;99.90;;;;;;6233663;23;20068;-91
2021/09/27 11:25:22;;;;;;;1.35;0.77;;;20.30;99.90;;;;;;6233520;23;20012;-91
2021/09/27 11:28:07;;;;;;;1.30;0.90;;;20.20;99.90;;;;;;6234655;23;20031;-93
2021/09/27 11:31:18;;;;;;;2.33;1.15;;;20.20;99.90;;;;;;6233193;23;20017;-94
2021/09/27 11:33:55;;;;;;;2.63;0.95;;;20.20;99.90;;;;;;6179181;23;20491;-93
2021/09/27 11:36:24;;;;;;;3.35;1.10;;;20.20;99.90;;;;;;6233456;23;20024;-91
2021/09/27 11:39:11;;;;;;;1.90;0.80;;;20.20;99.90;;;;;;6235341;23;20021;-94
2021/09/27 11:41:39;;;;;;;2.05;1.00;;;20.10;99.90;;;;;;6232757;23;20433;-94
2021/09/27 11:44:14;;;;;;;1.83;1.00;;;20.10;99.90;;;;;;6206904;23;20128;-91
2021/09/27 11:46:55;;;;;;;1.50;0.80;;;20.10;99.90;;;;;;6233021;23;20066;-91
2021/09/27 11:49:28;;;;;;;2.28;0.85;;;20.20;99.90;;;;;;6234537;23;20044;-90
2021/09/27 11:52:36;;;;;;;2.28;1.10;;;20.20;99.90;;;;;;6235866;23;20019;-91
2021/09/27 11:55:49;;;;;;;1.63;0.85;;;20.30;99.90;;;;;;6235214;23;20001;-92
2021/09/27 11:58:23;;;;;;;1.70;0.85;;;20.40;99.90;;;;;;6230309;23;20016;-90
2021/09/27 12:01:12;;;;;;;3.15;0.98;;;20.60;99.90;;;;;;6235301;23;20017;-91
2021/09/27 12:04:11;;;;;;;1.63;0.90;;;20.60;99.90;;;;;;6235053;23;20496;-92
2021/09/27 12:06:43;;;;;;;2.15;0.90;;;20.60;99.90;;;;;;6259808;23;20016;-90
2021/09/27 12:09:20;;;;;;;2.00;1.10;;;20.60;99.90;;;;;;6235561;23;20066;-91
2021/09/27 12:11:51;;;;;;;2.13;1.10;;;20.60;99.90;;;;;;6235150;23;20066;-90
2021/09/27 12:14:27;;;;;;;1.80;1.08;;;20.60;99.90;;;;;;6235796;23;20012;-91
2021/09/27 12:17:02;;;;;;;1.73;1.00;;;20.60;99.90;;;;;;6235240;23;20020;-92
2021/09/27 12:19:33;;;;;;;2.63;1.10;;;20.60;99.90;;;;;;6234671;23;20310;-91
2021/09/27 12:22:06;;;;;;;1.73;0.98;;;20.60;99.90;;;;;;6234763;23;20050;-93
2021/09/27 12:24:37;;;;;;;2.35;1.13;;;20.50;99.90;;;;;;6235455;23;20012;-91
2021/09/27 12:27:13;;;;;;;2.78;1.17;;;20.50;99.90;;;;;;6234755;23;20020;-91
2021/09/27 12:30:10;;;;;;;2.38;1.27;;;20.60;99.90;;;;;;6234749;23;20012;-91
2021/09/27 12:32:48;;;;;;;2.30;1.00;;;20.60;99.90;;;;;;6234966;23;20074;-89
2021/09/27 12:35:31;;;;;;;1.58;0.82;;;20.60;99.90;;;;;;6235271;23;20016;-90
2021/09/27 12:37:59;;;;;;;0.88;0.60;;;20.50;99.90;;;;;;6235819;23;20091;-89
2021/09/27 12:40:35;;;;;;;1.45;0.70;;;20.40;99.90;;;;;;6210308;23;20052;-91
2021/09/27 12:43:14;;;;;;;1.48;0.82;;;20.30;99.90;;;;;;6234984;23;20087;-92
2021/09/27 12:46:06;;;;;;;1.67;1.13;;;20.30;99.90;;;;;;6235211;23;20016;-92
2021/09/27 12:48:40;;;;;;;1.83;1.08;;;20.20;99.90;;;;;;6234886;23;20012;-90
2021/09/27 12:51:21;;;;;;;1.13;0.80;;;20.30;99.90;;;;;;6235048;23;20009;-94
2021/09/27 12:54:12;;;;;;;2.33;1.13;;;20.20;99.90;;;;;;6234852;23;20017;-89
2021/09/27 12:56:39;;;;;;;2.28;1.00;;;20.20;99.90;;;;;;6233838;23;20051;-87
2021/09/27 12:59:12;;;;;;;2.33;1.13;;;20.30;99.90;;;;;;6209536;23;20013;-89
2021/09/27 13:01:44;;;;;;;1.52;0.98;;;20.40;99.90;;;;;;6234337;23;20099;-88
2021/09/27 13:04:31;;;;;;;0.57;0.45;;;20.50;99.90;;;;;;6234644;23;20016;-93
2021/09/27 13:07:11;;;;;;;1.48;0.80;;;20.50;99.90;;;;;;6234854;23;20024;-87
2021/09/27 13:09:57;;;;;;;2.47;0.90;;;20.60;99.90;;;;;;6234441;23;20020;-91
2021/09/27 13:12:25;;;;;;;0.50;0.38;;;20.80;99.90;;;;;;6235007;23;20329;-89
2021/09/27 13:15:06;;;;;;;0.85;0.40;;;20.80;99.90;;;;;;6234079;23;20021;-88
2021/09/27 13:17:33;;;;;;;1.25;0.60;;;20.70;99.90;;;;;;6233841;23;20016;-89
2021/09/27 13:20:49;;;;;;;1.27;0.70;;;20.70;99.90;;;;;;6234551;23;20067;-89
2021/09/27 13:23:24;;;;;;;0.93;0.63;;;20.70;99.90;;;;;;6208548;23;20012;-89
2021/09/27 13:26:00;;;;;;;1.13;0.67;;;20.60;99.90;;;;;;6234031;23;20464;-90
2021/09/27 13:28:40;;;;;;;2.30;0.68;;;20.60;99.90;;;;;;6233339;23;20087;-85
2021/09/27 13:31:11;;;;;;;0.50;0.30;;;20.60;99.90;;;;;;6233449;23;20062;-86
2021/09/27 13:34:09;;;;;;;3.25;0.75;;;20.60;99.90;;;;;;6232916;23;20012;-86
2021/09/27 13:36:41;;;;;;;1.27;0.77;;;20.60;99.90;;;;;;6254662;23;20102;-88
2021/09/27 13:39:15;;;;;;;2.45;0.98;;;20.60;99.90;;;;;;6234305;23;20333;-89
2021/09/27 13:42:04;;;;;;;0.40;0.40;;;20.60;99.90;;;;;;6233997;23;20017;-88
2021/09/27 13:44:43;;;;;;;1.40;0.50;;;20.60;99.90;;;;;;6234294;23;20023;-90
2021/09/27 13:47:10;;;;;;;1.58;0.68;;;20.60;99.90;;;;;;6234010;23;20008;-87
2021/09/27 13:49:38;;;;;;;0.95;0.60;;;20.60;99.90;;;;;;6233126;23;20009;-86
2021/09/27 13:52:08;;;;;;;0.22;0.22;;;20.50;99.90;;;;;;6208746;23;20040;-87
2021/09/27 13:54:36;;;;;;;1.75;1.10;;;20.40;99.90;;;;;;6233523;23;20108;-87
2021/09/27 13:57:03;;;;;;;0.98;0.60;;;20.50;99.90;;;;;;6208629;23;20013;-88
2021/09/27 13:59:30;;;;;;;0.77;0.50;;;20.40;99.90;;;;;;6209686;23;20507;-89
2021/09/27 14:01:57;;;;;;;0.90;0.60;;;20.40;99.90;;;;;;6209739;23;20017;-88
2021/09/27 14:04:24;;;;;;;0.80;0.52;;;20.40;99.90;;;;;;6209134;23;20043;-88
2021/09/27 14:06:50;;;;;;;0.80;0.45;;;20.40;99.90;;;;;;6209006;23;20027;-88